ENSU weather

Vinnu Airport
Sunndalsøra, Møre og Romsdal, Norway

Public forecast

Using degrees Celsius for public forecast. Weather courtesy of forecast.io.

Closest aviation weather report (METAR) to Vinnu Airport

Closest report is Kristiansund Airport (Kvernberget), 35.6 nm (66.0 km) NW. Retrieved 2020/08/04 10:20 UTC (35 minutes ago):

ENKB 041020Z 19005KT 110V250 9999 -DZ FEW035 BKN055 15/08 Q1007 RMK WIND 745FT 20010KT

Closest aviation forecast (TAF) to Vinnu Airport

Forecast is more than 12 hours old.

Closest forecast is Molde Airport, 39.0 nm (72.2 km) W. Retrieved 2011/03/08 08:45 UTC (9 years ago):

TAF TAF ESDF 0808 FCNO33 ENMI 080800 RRC TAF ENML 080800Z 0809/0818 21015KT 9999 FEW030 BKN050 TEMPO 0809/0818 21022G35KT BECMG 0815/0818 21022G35KT TEMPO 0815/0818 4000 RADZ BKN012